DLH1498 EDDF-LPFR
Flight info
| Callsign | DLH1498 |
|---|---|
| Flight time | 2h 57m |
| Altitude | 35000 |
| Route | SOBRA2L/18 SOBRA Y180 DIK UN857 TOLVU DCT RAPOR DCT GIMER DCT ESTOC DCT PON DCT DITAL DCT GODIX DCT DIDAK DCT KURIS DCT TERPO DCT ERIGA DCT FUJTI DCT PEPET DCT BAKUP/N0444F370 DCT BATAX DCT TOFEF DCT ALAGU DCT USALU |
| Aircraft | A21N/M-SDE2E3FGIJ1LORWXYZ/HB1 |
Departure
| Time | 2026-04-15 10:50 |
|---|---|
| Airport | Frankfurt Main Airport (EDDF) |
Arrival
| Time | 2026-04-15 13:48 |
|---|---|
| Airport | Faro - Gago Coutinho International Airport (LPFR) |
| Time | Latitude | Longitude | Altitude | Speed | Heading |
|---|---|---|---|---|---|
| 2026-04-15 09:59 | 50.04636 | 8.56666 | 338 ft | 0 kts | 115° |
| 2026-04-15 10:00 | 50.04637 | 8.56664 | 361 ft | 0 kts | 115° |
| 2026-04-15 10:34 | 50.04640 | 8.56655 | 361 ft | 2 kts | 114° |
| 2026-04-15 10:35 | 50.04648 | 8.56627 | 363 ft | 4 kts | 113° |
| 2026-04-15 10:35 | 50.04656 | 8.56598 | 363 ft | 5 kts | 115° |
| 2026-04-15 10:35 | 50.04663 | 8.56575 | 366 ft | 5 kts | 122° |
| 2026-04-15 10:35 | 50.04675 | 8.56553 | 366 ft | 4 kts | 152° |
| 2026-04-15 10:36 | 50.04692 | 8.56547 | 366 ft | 4 kts | 196° |
| 2026-04-15 10:36 | 50.04708 | 8.56561 | 363 ft | 4 kts | 223° |
| 2026-04-15 10:36 | 50.04720 | 8.56581 | 365 ft | 2 kts | 235° |
| 2026-04-15 10:36 | 50.04727 | 8.56597 | 364 ft | 3 kts | 233° |
| 2026-04-15 10:37 | 50.04740 | 8.56622 | 365 ft | 3 kts | 227° |
| 2026-04-15 10:37 | 50.04754 | 8.56644 | 368 ft | 3 kts | 220° |
| 2026-04-15 10:37 | 50.04770 | 8.56663 | 367 ft | 3 kts | 212° |
| 2026-04-15 10:37 | 50.04784 | 8.56675 | 365 ft | 2 kts | 205° |
| 2026-04-15 10:41 | 50.04778 | 8.56671 | 361 ft | 1 kts | 204° |
| 2026-04-15 10:41 | 50.04763 | 8.56657 | 366 ft | 4 kts | 217° |
| 2026-04-15 10:41 | 50.04739 | 8.56620 | 365 ft | 6 kts | 232° |
| 2026-04-15 10:42 | 50.04707 | 8.56560 | 361 ft | 9 kts | 221° |
| 2026-04-15 10:42 | 50.04645 | 8.56509 | 361 ft | 11 kts | 205° |
| 2026-04-15 10:42 | 50.04565 | 8.56451 | 361 ft | 14 kts | 205° |
| 2026-04-15 10:42 | 50.04505 | 8.56336 | 363 ft | 15 kts | 249° |
| 2026-04-15 10:43 | 50.04467 | 8.56179 | 366 ft | 16 kts | 249° |
| 2026-04-15 10:43 | 50.04438 | 8.56059 | 364 ft | 11 kts | 244° |
| 2026-04-15 10:43 | 50.04363 | 8.56043 | 365 ft | 12 kts | 161° |
| 2026-04-15 10:43 | 50.04294 | 8.56121 | 360 ft | 13 kts | 102° |
| 2026-04-15 10:44 | 50.04248 | 8.56236 | 366 ft | 14 kts | 159° |
| 2026-04-15 10:44 | 50.04176 | 8.56277 | 361 ft | 9 kts | 159° |
| 2026-04-15 10:44 | 50.04119 | 8.56245 | 360 ft | 10 kts | 242° |
| 2026-04-15 10:44 | 50.04092 | 8.56131 | 362 ft | 12 kts | 250° |
| 2026-04-15 10:45 | 50.04059 | 8.55995 | 359 ft | 14 kts | 249° |
| 2026-04-15 10:45 | 50.04022 | 8.55841 | 363 ft | 16 kts | 250° |
| 2026-04-15 10:45 | 50.03981 | 8.55670 | 361 ft | 18 kts | 249° |
| 2026-04-15 10:45 | 50.03934 | 8.55474 | 361 ft | 20 kts | 250° |
| 2026-04-15 10:46 | 50.03883 | 8.55256 | 355 ft | 23 kts | 249° |
| 2026-04-15 10:46 | 50.03826 | 8.55019 | 358 ft | 24 kts | 249° |
| 2026-04-15 10:46 | 50.03767 | 8.54772 | 356 ft | 25 kts | 250° |
| 2026-04-15 10:46 | 50.03706 | 8.54517 | 352 ft | 25 kts | 249° |
| 2026-04-15 10:47 | 50.03644 | 8.54259 | 352 ft | 26 kts | 250° |
| 2026-04-15 10:47 | 50.03579 | 8.53988 | 349 ft | 27 kts | 250° |
| 2026-04-15 10:47 | 50.03512 | 8.53708 | 350 ft | 28 kts | 249° |
| 2026-04-15 10:47 | 50.03445 | 8.53427 | 351 ft | 21 kts | 250° |
| 2026-04-15 10:48 | 50.03394 | 8.53213 | 342 ft | 22 kts | 250° |
| 2026-04-15 10:48 | 50.03340 | 8.52989 | 340 ft | 22 kts | 249° |
| 2026-04-15 10:48 | 50.03295 | 8.52804 | 338 ft | 13 kts | 250° |
| 2026-04-15 10:48 | 50.03267 | 8.52687 | 339 ft | 11 kts | 249° |
| 2026-04-15 10:49 | 50.03261 | 8.52590 | 338 ft | 9 kts | 225° |
| 2026-04-15 10:49 | 50.03239 | 8.52586 | 341 ft | 0 kts | 178° |
| 2026-04-15 10:49 | 50.03140 | 8.52592 | 341 ft | 45 kts | 178° |
| 2026-04-15 10:50 | 50.02586 | 8.52603 | 341 ft | 112 kts | 180° |
| 2026-04-15 10:50 | 50.01616 | 8.52610 | 338 ft | 164 kts | 179° |
| 2026-04-15 10:50 | 50.00417 | 8.52622 | 722 ft | 173 kts | 179° |
| 2026-04-15 10:50 | 49.99205 | 8.52668 | 1453 ft | 176 kts | 175° |
| 2026-04-15 10:51 | 49.97934 | 8.52849 | 1915 ft | 191 kts | 175° |
| 2026-04-15 10:51 | 49.96571 | 8.52980 | 2440 ft | 204 kts | 177° |
| 2026-04-15 10:51 | 49.95123 | 8.53029 | 3114 ft | 212 kts | 179° |
| 2026-04-15 10:51 | 49.93603 | 8.53074 | 3784 ft | 224 kts | 178° |
| 2026-04-15 10:52 | 49.91980 | 8.53173 | 3997 ft | 237 kts | 177° |
| 2026-04-15 10:52 | 49.90326 | 8.53291 | 4021 ft | 238 kts | 176° |
| 2026-04-15 10:52 | 49.88675 | 8.53405 | 4025 ft | 236 kts | 176° |
| 2026-04-15 10:52 | 49.87016 | 8.53307 | 4656 ft | 242 kts | 191° |
| 2026-04-15 10:53 | 49.85367 | 8.52523 | 5178 ft | 260 kts | 200° |
| 2026-04-15 10:53 | 49.83623 | 8.51495 | 5754 ft | 274 kts | 201° |
| 2026-04-15 10:53 | 49.81821 | 8.50440 | 6543 ft | 279 kts | 201° |
| 2026-04-15 10:53 | 49.79995 | 8.49388 | 7388 ft | 280 kts | 201° |
| 2026-04-15 10:54 | 49.78195 | 8.48246 | 8284 ft | 279 kts | 209° |
| 2026-04-15 10:54 | 49.76714 | 8.46344 | 9152 ft | 278 kts | 233° |
| 2026-04-15 10:54 | 49.75898 | 8.43640 | 10052 ft | 279 kts | 258° |
| 2026-04-15 10:54 | 49.75884 | 8.40652 | 10684 ft | 290 kts | 279° |
| 2026-04-15 10:55 | 49.76386 | 8.37507 | 11030 ft | 312 kts | 284° |
| 2026-04-15 10:55 | 49.76995 | 8.34167 | 11332 ft | 333 kts | 284° |
| 2026-04-15 10:55 | 49.77622 | 8.30607 | 11696 ft | 350 kts | 284° |
| 2026-04-15 10:55 | 49.78237 | 8.26958 | 12317 ft | 356 kts | 283° |
| 2026-04-15 10:56 | 49.78848 | 8.23228 | 13123 ft | 358 kts | 283° |
| 2026-04-15 10:56 | 49.79453 | 8.19487 | 13961 ft | 359 kts | 282° |
| 2026-04-15 10:56 | 49.80060 | 8.15702 | 14679 ft | 362 kts | 283° |
| 2026-04-15 10:56 | 49.80667 | 8.11886 | 15309 ft | 366 kts | 283° |
| 2026-04-15 10:57 | 49.81276 | 8.08051 | 15928 ft | 370 kts | 282° |
| 2026-04-15 10:57 | 49.82499 | 8.00257 | 17222 ft | 376 kts | 283° |
| 2026-04-15 10:57 | 49.83118 | 7.96302 | 17831 ft | 380 kts | 283° |
| 2026-04-15 10:58 | 49.83749 | 7.92302 | 18430 ft | 384 kts | 283° |
| 2026-04-15 10:58 | 49.84388 | 7.88255 | 18954 ft | 387 kts | 283° |
| 2026-04-15 10:58 | 49.85031 | 7.84179 | 19478 ft | 389 kts | 283° |
| 2026-04-15 10:58 | 49.85667 | 7.80129 | 19983 ft | 392 kts | 283° |
| 2026-04-15 10:59 | 49.86276 | 7.75989 | 20470 ft | 395 kts | 279° |
| 2026-04-15 10:59 | 49.86506 | 7.71720 | 21037 ft | 396 kts | 273° |
| 2026-04-15 10:59 | 49.86611 | 7.67447 | 21567 ft | 398 kts | 272° |
| 2026-04-15 10:59 | 49.86710 | 7.63189 | 22115 ft | 399 kts | 272° |
| 2026-04-15 11:00 | 49.86828 | 7.58871 | 22653 ft | 402 kts | 273° |
| 2026-04-15 11:00 | 49.86957 | 7.54508 | 23108 ft | 405 kts | 273° |
| 2026-04-15 11:00 | 49.87089 | 7.50107 | 23555 ft | 409 kts | 273° |
| 2026-04-15 11:00 | 49.87230 | 7.45675 | 23968 ft | 413 kts | 273° |
| 2026-04-15 11:01 | 49.87369 | 7.41239 | 24328 ft | 417 kts | 273° |
| 2026-04-15 11:01 | 49.87508 | 7.36714 | 24696 ft | 420 kts | 273° |
| 2026-04-15 11:01 | 49.87637 | 7.32182 | 25117 ft | 422 kts | 273° |
| 2026-04-15 11:01 | 49.87768 | 7.27627 | 25539 ft | 424 kts | 273° |
| 2026-04-15 11:02 | 49.87901 | 7.23107 | 25938 ft | 426 kts | 273° |
| 2026-04-15 11:02 | 49.88033 | 7.18509 | 26317 ft | 428 kts | 273° |
| 2026-04-15 11:02 | 49.88160 | 7.13880 | 26691 ft | 430 kts | 273° |
| 2026-04-15 11:02 | 49.88290 | 7.09211 | 27060 ft | 433 kts | 273° |
| 2026-04-15 11:03 | 49.88415 | 7.04540 | 27426 ft | 435 kts | 273° |
| 2026-04-15 11:03 | 49.88544 | 6.99845 | 27760 ft | 437 kts | 274° |
| 2026-04-15 11:03 | 49.88671 | 6.95128 | 28100 ft | 439 kts | 273° |
| 2026-04-15 11:03 | 49.88799 | 6.90372 | 28434 ft | 442 kts | 274° |
| 2026-04-15 11:04 | 49.88924 | 6.85635 | 28759 ft | 444 kts | 274° |
| 2026-04-15 11:04 | 49.89045 | 6.80827 | 29082 ft | 446 kts | 274° |
| 2026-04-15 11:04 | 49.89165 | 6.76013 | 29403 ft | 447 kts | 274° |
| 2026-04-15 11:04 | 49.89276 | 6.71189 | 29824 ft | 446 kts | 274° |
| 2026-04-15 11:05 | 49.89391 | 6.66458 | 30260 ft | 445 kts | 274° |
| 2026-04-15 11:05 | 49.89506 | 6.61660 | 30614 ft | 444 kts | 274° |
| 2026-04-15 11:05 | 49.89615 | 6.56868 | 30948 ft | 443 kts | 274° |
| 2026-04-15 11:05 | 49.89730 | 6.52084 | 31282 ft | 442 kts | 274° |
| 2026-04-15 11:06 | 49.89842 | 6.47301 | 31610 ft | 441 kts | 274° |
| 2026-04-15 11:06 | 49.89948 | 6.42591 | 31927 ft | 441 kts | 274° |
| 2026-04-15 11:06 | 49.90053 | 6.37818 | 32241 ft | 440 kts | 274° |
| 2026-04-15 11:06 | 49.90145 | 6.33064 | 32560 ft | 440 kts | 273° |
| 2026-04-15 11:07 | 49.89940 | 6.28322 | 32848 ft | 443 kts | 263° |
| 2026-04-15 11:07 | 49.89193 | 6.23746 | 33122 ft | 447 kts | 253° |
| 2026-04-15 11:07 | 49.87964 | 6.19278 | 33381 ft | 449 kts | 248° |
| 2026-04-15 11:07 | 49.86623 | 6.14893 | 33644 ft | 449 kts | 248° |
| 2026-04-15 11:08 | 49.85275 | 6.10538 | 33882 ft | 449 kts | 248° |
| 2026-04-15 11:08 | 49.83931 | 6.06178 | 34140 ft | 448 kts | 248° |
| 2026-04-15 11:08 | 49.82582 | 6.01814 | 34343 ft | 448 kts | 248° |
| 2026-04-15 11:08 | 49.81248 | 5.97517 | 34540 ft | 448 kts | 248° |
| 2026-04-15 11:09 | 49.79899 | 5.93158 | 34733 ft | 448 kts | 248° |
| 2026-04-15 11:09 | 49.78555 | 5.88805 | 34899 ft | 447 kts | 248° |
| 2026-04-15 11:09 | 49.77213 | 5.84454 | 35057 ft | 448 kts | 248° |
| 2026-04-15 11:09 | 49.75886 | 5.80152 | 35218 ft | 448 kts | 248° |
| 2026-04-15 11:10 | 49.73199 | 5.71440 | 35252 ft | 447 kts | 248° |
| 2026-04-15 11:10 | 49.70515 | 5.62742 | 35232 ft | 447 kts | 248° |
| 2026-04-15 11:11 | 49.67830 | 5.54119 | 35225 ft | 447 kts | 248° |
| 2026-04-15 11:11 | 49.65119 | 5.45457 | 35225 ft | 447 kts | 248° |
| 2026-04-15 11:12 | 49.62465 | 5.36761 | 35226 ft | 445 kts | 252° |
| 2026-04-15 11:12 | 49.60494 | 5.27781 | 35224 ft | 443 kts | 256° |
| 2026-04-15 11:13 | 49.58667 | 5.18716 | 35225 ft | 441 kts | 258° |
| 2026-04-15 11:13 | 49.57063 | 5.09637 | 35227 ft | 441 kts | 258° |
| 2026-04-15 11:14 | 49.55444 | 5.00490 | 35220 ft | 441 kts | 258° |
| 2026-04-15 11:14 | 49.53827 | 4.91446 | 35226 ft | 440 kts | 258° |
| 2026-04-15 11:15 | 49.52193 | 4.82363 | 35231 ft | 439 kts | 258° |
| 2026-04-15 11:15 | 49.50558 | 4.73304 | 35227 ft | 439 kts | 258° |
| 2026-04-15 11:16 | 49.48920 | 4.64264 | 35228 ft | 438 kts | 258° |
| 2026-04-15 11:16 | 49.47271 | 4.55227 | 35225 ft | 438 kts | 258° |
| 2026-04-15 11:17 | 49.45631 | 4.46272 | 35229 ft | 437 kts | 258° |
| 2026-04-15 11:17 | 49.43969 | 4.37253 | 35227 ft | 437 kts | 258° |
| 2026-04-15 11:18 | 49.42308 | 4.28266 | 35231 ft | 436 kts | 258° |
| 2026-04-15 11:18 | 49.40650 | 4.19335 | 35226 ft | 436 kts | 258° |
| 2026-04-15 11:19 | 49.38983 | 4.10393 | 35232 ft | 435 kts | 258° |
| 2026-04-15 11:19 | 49.37317 | 4.01511 | 35233 ft | 434 kts | 258° |
| 2026-04-15 11:20 | 49.35841 | 3.92522 | 35223 ft | 432 kts | 261° |
| 2026-04-15 11:20 | 49.34567 | 3.83557 | 35220 ft | 432 kts | 261° |
| 2026-04-15 11:21 | 49.33278 | 3.74585 | 35207 ft | 431 kts | 261° |
| 2026-04-15 11:21 | 49.32203 | 3.67111 | 35200 ft | 431 kts | 261° |
| 2026-04-15 11:22 | 49.30902 | 3.58148 | 35201 ft | 430 kts | 261° |
| 2026-04-15 11:22 | 49.29590 | 3.49176 | 35197 ft | 429 kts | 261° |
| 2026-04-15 11:23 | 49.28285 | 3.40304 | 35205 ft | 429 kts | 261° |
| 2026-04-15 11:23 | 49.26965 | 3.31389 | 35201 ft | 429 kts | 261° |
| 2026-04-15 11:24 | 49.25648 | 3.22475 | 35201 ft | 429 kts | 261° |
| 2026-04-15 11:24 | 49.24327 | 3.13613 | 35202 ft | 428 kts | 260° |
| 2026-04-15 11:25 | 49.22990 | 3.04727 | 35200 ft | 428 kts | 260° |
| 2026-04-15 11:25 | 49.21653 | 2.95875 | 35202 ft | 427 kts | 260° |
| 2026-04-15 11:26 | 49.20375 | 2.87498 | 35202 ft | 427 kts | 260° |
| 2026-04-15 11:26 | 49.19029 | 2.78689 | 35195 ft | 427 kts | 260° |
| 2026-04-15 11:27 | 49.17676 | 2.69868 | 35199 ft | 426 kts | 260° |
| 2026-04-15 11:27 | 49.16314 | 2.61028 | 35197 ft | 426 kts | 259° |
| 2026-04-15 11:28 | 49.14946 | 2.52211 | 35195 ft | 426 kts | 259° |
| 2026-04-15 11:28 | 49.13573 | 2.43453 | 35197 ft | 425 kts | 259° |
| 2026-04-15 11:29 | 49.12482 | 2.34579 | 35195 ft | 423 kts | 264° |
| 2026-04-15 11:29 | 49.11677 | 2.25750 | 35195 ft | 422 kts | 264° |
| 2026-04-15 11:30 | 49.10846 | 2.16859 | 35202 ft | 422 kts | 264° |
| 2026-04-15 11:30 | 49.10014 | 2.07979 | 35198 ft | 422 kts | 264° |
| 2026-04-15 11:31 | 49.08397 | 1.99393 | 35201 ft | 427 kts | 249° |
| 2026-04-15 11:31 | 49.05901 | 1.91220 | 35076 ft | 414 kts | 243° |
| 2026-04-15 11:32 | 49.03508 | 1.83403 | 35169 ft | 407 kts | 244° |
| 2026-04-15 11:32 | 49.01135 | 1.75574 | 35197 ft | 405 kts | 244° |
| 2026-04-15 11:33 | 48.98779 | 1.67806 | 35193 ft | 405 kts | 244° |
| 2026-04-15 11:33 | 48.96405 | 1.59992 | 35185 ft | 405 kts | 244° |
| 2026-04-15 11:34 | 48.94050 | 1.52284 | 35182 ft | 404 kts | 243° |
| 2026-04-15 11:34 | 48.91669 | 1.44523 | 35178 ft | 403 kts | 243° |
| 2026-04-15 11:35 | 48.89110 | 1.36993 | 35178 ft | 402 kts | 239° |
| 2026-04-15 11:35 | 48.86292 | 1.29647 | 35170 ft | 402 kts | 239° |
| 2026-04-15 11:36 | 48.83512 | 1.22290 | 35173 ft | 401 kts | 239° |
| 2026-04-15 11:36 | 48.80738 | 1.14974 | 35179 ft | 401 kts | 238° |
| 2026-04-15 11:37 | 48.77941 | 1.07650 | 35174 ft | 400 kts | 238° |
| 2026-04-15 11:37 | 48.75155 | 1.00383 | 35184 ft | 400 kts | 238° |
| 2026-04-15 11:38 | 48.72362 | 0.93113 | 35185 ft | 400 kts | 238° |
| 2026-04-15 11:38 | 48.69556 | 0.85843 | 35181 ft | 399 kts | 238° |
| 2026-04-15 11:39 | 48.66747 | 0.78573 | 35180 ft | 399 kts | 238° |
| 2026-04-15 11:39 | 48.63953 | 0.71368 | 35182 ft | 399 kts | 238° |
| 2026-04-15 11:40 | 48.61142 | 0.64128 | 35181 ft | 398 kts | 238° |
| 2026-04-15 11:40 | 48.58341 | 0.56948 | 35178 ft | 398 kts | 238° |
| 2026-04-15 11:41 | 48.55544 | 0.49710 | 35175 ft | 398 kts | 238° |
| 2026-04-15 11:41 | 48.52732 | 0.42503 | 35177 ft | 397 kts | 237° |
| 2026-04-15 11:42 | 48.49940 | 0.35375 | 35174 ft | 396 kts | 237° |
| 2026-04-15 11:42 | 48.47122 | 0.28213 | 35174 ft | 396 kts | 237° |
| 2026-04-15 11:43 | 48.44329 | 0.21123 | 35172 ft | 395 kts | 237° |
| 2026-04-15 11:43 | 48.41502 | 0.13988 | 35167 ft | 394 kts | 237° |
| 2026-04-15 11:44 | 48.38697 | 0.06911 | 35172 ft | 394 kts | 237° |
| 2026-04-15 11:44 | 48.35899 | -0.00117 | 35171 ft | 393 kts | 237° |
| 2026-04-15 11:45 | 48.33090 | -0.07194 | 35163 ft | 393 kts | 237° |
| 2026-04-15 11:45 | 48.30276 | -0.14249 | 35181 ft | 393 kts | 237° |
| 2026-04-15 11:46 | 48.27467 | -0.21254 | 35175 ft | 393 kts | 237° |
| 2026-04-15 11:46 | 48.24428 | -0.28060 | 35182 ft | 392 kts | 232° |
| 2026-04-15 11:47 | 48.21126 | -0.34517 | 35174 ft | 392 kts | 231° |
| 2026-04-15 11:47 | 48.17796 | -0.41015 | 35167 ft | 393 kts | 232° |
| 2026-04-15 11:48 | 48.14474 | -0.47509 | 35172 ft | 392 kts | 232° |
| 2026-04-15 11:48 | 48.11079 | -0.53838 | 35174 ft | 394 kts | 225° |
| 2026-04-15 11:49 | 48.06808 | -0.58969 | 35173 ft | 393 kts | 218° |
| 2026-04-15 11:49 | 48.02445 | -0.63882 | 35183 ft | 393 kts | 218° |
| 2026-04-15 11:50 | 47.98118 | -0.68811 | 35183 ft | 393 kts | 219° |
| 2026-04-15 11:50 | 47.93772 | -0.73768 | 35174 ft | 393 kts | 219° |
| 2026-04-15 11:51 | 47.89414 | -0.78719 | 35165 ft | 393 kts | 219° |
| 2026-04-15 11:51 | 47.85081 | -0.83634 | 35176 ft | 393 kts | 219° |
| 2026-04-15 11:52 | 47.80711 | -0.88571 | 35179 ft | 393 kts | 219° |
| 2026-04-15 11:52 | 47.76366 | -0.93472 | 35176 ft | 393 kts | 219° |
| 2026-04-15 11:53 | 47.71991 | -0.98403 | 35188 ft | 394 kts | 219° |
| 2026-04-15 11:53 | 47.67640 | -1.03296 | 35202 ft | 394 kts | 219° |
| 2026-04-15 11:54 | 47.63257 | -1.08220 | 35194 ft | 394 kts | 219° |
| 2026-04-15 11:54 | 47.58899 | -1.13107 | 35187 ft | 394 kts | 219° |
| 2026-04-15 11:55 | 47.54512 | -1.18017 | 35185 ft | 394 kts | 219° |
| 2026-04-15 11:55 | 47.50156 | -1.22879 | 35191 ft | 394 kts | 219° |
| 2026-04-15 11:56 | 47.45761 | -1.27768 | 35204 ft | 394 kts | 219° |
| 2026-04-15 11:56 | 47.41388 | -1.32632 | 35199 ft | 395 kts | 219° |
| 2026-04-15 11:57 | 47.34786 | -1.39948 | 35209 ft | 395 kts | 219° |
| 2026-04-15 11:58 | 47.30408 | -1.44791 | 35221 ft | 395 kts | 219° |
| 2026-04-15 11:58 | 47.26001 | -1.49649 | 35227 ft | 395 kts | 219° |
| 2026-04-15 11:59 | 47.21590 | -1.54500 | 35231 ft | 395 kts | 219° |
| 2026-04-15 11:59 | 47.17200 | -1.59324 | 35229 ft | 395 kts | 219° |
| 2026-04-15 12:00 | 47.12785 | -1.64167 | 35231 ft | 395 kts | 219° |
| 2026-04-15 12:00 | 47.08367 | -1.68993 | 35228 ft | 395 kts | 219° |
| 2026-04-15 12:01 | 47.03954 | -1.73813 | 35232 ft | 395 kts | 219° |
| 2026-04-15 12:01 | 46.99562 | -1.78595 | 35216 ft | 395 kts | 219° |
| 2026-04-15 12:02 | 46.95170 | -1.83372 | 35220 ft | 395 kts | 219° |
| 2026-04-15 12:02 | 46.90746 | -1.88172 | 35227 ft | 395 kts | 219° |
| 2026-04-15 12:03 | 46.86329 | -1.92953 | 35225 ft | 395 kts | 219° |
| 2026-04-15 12:03 | 46.81906 | -1.97727 | 35224 ft | 395 kts | 219° |
| 2026-04-15 12:04 | 46.77507 | -2.02464 | 35226 ft | 395 kts | 219° |
| 2026-04-15 12:04 | 46.73085 | -2.07216 | 35229 ft | 394 kts | 219° |
| 2026-04-15 12:05 | 46.68656 | -2.11968 | 35231 ft | 394 kts | 219° |
| 2026-04-15 12:05 | 46.64253 | -2.16689 | 35232 ft | 394 kts | 219° |
| 2026-04-15 12:06 | 46.59828 | -2.21440 | 35229 ft | 394 kts | 219° |
| 2026-04-15 12:06 | 46.55428 | -2.26145 | 35227 ft | 394 kts | 219° |
| 2026-04-15 12:07 | 46.51732 | -2.30075 | 35225 ft | 394 kts | 219° |
| 2026-04-15 12:07 | 46.46569 | -2.35557 | 35233 ft | 395 kts | 219° |
| 2026-04-15 12:08 | 46.42884 | -2.39469 | 35233 ft | 395 kts | 219° |
| 2026-04-15 12:08 | 46.38438 | -2.44179 | 35238 ft | 394 kts | 219° |
| 2026-04-15 12:09 | 46.34025 | -2.48839 | 35235 ft | 394 kts | 219° |
| 2026-04-15 12:09 | 46.29582 | -2.53523 | 35235 ft | 394 kts | 219° |
| 2026-04-15 12:10 | 46.25133 | -2.58191 | 35237 ft | 394 kts | 219° |
| 2026-04-15 12:10 | 46.20716 | -2.62815 | 35239 ft | 394 kts | 219° |
| 2026-04-15 12:11 | 46.16267 | -2.67472 | 35238 ft | 395 kts | 219° |
| 2026-04-15 12:11 | 46.11833 | -2.72104 | 35238 ft | 395 kts | 219° |
| 2026-04-15 12:12 | 46.07370 | -2.76761 | 35241 ft | 395 kts | 219° |
| 2026-04-15 12:12 | 46.02896 | -2.81417 | 35243 ft | 395 kts | 219° |
| 2026-04-15 12:13 | 45.98455 | -2.86030 | 35242 ft | 395 kts | 219° |
| 2026-04-15 12:13 | 45.93994 | -2.90671 | 35243 ft | 395 kts | 219° |
| 2026-04-15 12:14 | 45.89547 | -2.95282 | 35248 ft | 395 kts | 219° |
| 2026-04-15 12:14 | 45.85070 | -2.99906 | 35246 ft | 395 kts | 219° |
| 2026-04-15 12:15 | 45.80626 | -3.04475 | 35244 ft | 395 kts | 219° |
| 2026-04-15 12:15 | 45.76145 | -3.09095 | 35244 ft | 395 kts | 219° |
| 2026-04-15 12:16 | 45.71657 | -3.13696 | 35248 ft | 396 kts | 219° |
| 2026-04-15 12:16 | 45.67205 | -3.18254 | 35247 ft | 396 kts | 219° |
| 2026-04-15 12:17 | 45.62714 | -3.22851 | 35248 ft | 396 kts | 219° |
| 2026-04-15 12:17 | 45.58248 | -3.27409 | 35247 ft | 396 kts | 219° |
| 2026-04-15 12:18 | 45.53751 | -3.31987 | 35245 ft | 397 kts | 219° |
| 2026-04-15 12:18 | 45.49271 | -3.36540 | 35256 ft | 397 kts | 219° |
| 2026-04-15 12:19 | 45.44759 | -3.41119 | 35254 ft | 397 kts | 219° |
| 2026-04-15 12:19 | 45.40278 | -3.45640 | 35250 ft | 396 kts | 219° |
| 2026-04-15 12:20 | 45.35761 | -3.50193 | 35253 ft | 397 kts | 219° |
| 2026-04-15 12:20 | 45.31273 | -3.54717 | 35251 ft | 397 kts | 219° |
| 2026-04-15 12:21 | 45.26753 | -3.59262 | 35258 ft | 397 kts | 219° |
| 2026-04-15 12:21 | 45.22267 | -3.63767 | 35255 ft | 397 kts | 219° |
| 2026-04-15 12:22 | 45.17741 | -3.68303 | 35254 ft | 397 kts | 219° |
| 2026-04-15 12:22 | 45.13238 | -3.72800 | 35257 ft | 397 kts | 219° |
| 2026-04-15 12:23 | 45.08709 | -3.77312 | 35257 ft | 397 kts | 219° |
| 2026-04-15 12:23 | 45.04178 | -3.81827 | 35254 ft | 398 kts | 219° |
| 2026-04-15 12:24 | 44.99670 | -3.86311 | 35255 ft | 398 kts | 219° |
| 2026-04-15 12:24 | 44.95161 | -3.90785 | 35258 ft | 398 kts | 219° |
| 2026-04-15 12:25 | 44.90617 | -3.95279 | 35259 ft | 398 kts | 219° |
| 2026-04-15 12:25 | 44.86071 | -3.99771 | 35260 ft | 398 kts | 219° |
| 2026-04-15 12:26 | 44.81560 | -4.04220 | 35264 ft | 398 kts | 219° |
| 2026-04-15 12:26 | 44.77015 | -4.08691 | 35261 ft | 398 kts | 219° |
| 2026-04-15 12:27 | 44.72463 | -4.13161 | 35260 ft | 398 kts | 219° |
| 2026-04-15 12:27 | 44.67929 | -4.17604 | 35270 ft | 398 kts | 219° |
| 2026-04-15 12:28 | 44.63395 | -4.22044 | 35270 ft | 398 kts | 219° |
| 2026-04-15 12:28 | 44.58838 | -4.26505 | 35264 ft | 398 kts | 219° |
| 2026-04-15 12:29 | 44.54314 | -4.30924 | 35258 ft | 398 kts | 219° |
| 2026-04-15 12:29 | 44.49749 | -4.35367 | 35265 ft | 399 kts | 219° |
| 2026-04-15 12:30 | 44.45193 | -4.39790 | 35269 ft | 398 kts | 219° |
| 2026-04-15 12:30 | 44.40631 | -4.44138 | 35266 ft | 400 kts | 217° |
| 2026-04-15 12:31 | 44.35852 | -4.48208 | 35547 ft | 401 kts | 216° |
| 2026-04-15 12:31 | 44.33462 | -4.50226 | 35759 ft | 400 kts | 216° |
| 2026-04-15 12:31 | 44.31082 | -4.52236 | 35961 ft | 399 kts | 216° |
| 2026-04-15 12:31 | 44.28696 | -4.54251 | 36147 ft | 399 kts | 216° |
| 2026-04-15 12:32 | 44.26352 | -4.56233 | 36372 ft | 398 kts | 217° |
| 2026-04-15 12:32 | 44.23980 | -4.58234 | 36573 ft | 397 kts | 217° |
| 2026-04-15 12:32 | 44.21617 | -4.60226 | 36776 ft | 396 kts | 217° |
| 2026-04-15 12:32 | 44.19264 | -4.62208 | 36970 ft | 395 kts | 217° |
| 2026-04-15 12:33 | 44.16915 | -4.64184 | 37157 ft | 394 kts | 217° |
| 2026-04-15 12:33 | 44.14559 | -4.66165 | 37294 ft | 395 kts | 217° |
| 2026-04-15 12:33 | 44.12209 | -4.68139 | 37309 ft | 393 kts | 217° |
| 2026-04-15 12:34 | 44.07548 | -4.72047 | 37280 ft | 393 kts | 217° |
| 2026-04-15 12:34 | 44.02863 | -4.75969 | 37274 ft | 393 kts | 217° |
| 2026-04-15 12:35 | 43.98177 | -4.79886 | 37272 ft | 393 kts | 217° |
| 2026-04-15 12:35 | 43.93493 | -4.83791 | 37271 ft | 393 kts | 217° |
| 2026-04-15 12:36 | 43.88799 | -4.87702 | 37271 ft | 392 kts | 217° |
| 2026-04-15 12:36 | 43.84131 | -4.91582 | 37270 ft | 393 kts | 217° |
| 2026-04-15 12:37 | 43.79459 | -4.95455 | 37269 ft | 392 kts | 217° |
| 2026-04-15 12:37 | 43.74757 | -4.99350 | 37273 ft | 393 kts | 217° |
| 2026-04-15 12:38 | 43.70060 | -5.03230 | 37271 ft | 392 kts | 217° |
| 2026-04-15 12:38 | 43.65390 | -5.07084 | 37272 ft | 392 kts | 217° |
| 2026-04-15 12:39 | 43.60718 | -5.10929 | 37273 ft | 392 kts | 217° |
| 2026-04-15 12:39 | 43.56032 | -5.14778 | 37276 ft | 391 kts | 217° |
| 2026-04-15 12:40 | 43.51374 | -5.18602 | 37274 ft | 391 kts | 217° |
| 2026-04-15 12:40 | 43.46680 | -5.22443 | 37269 ft | 391 kts | 217° |
| 2026-04-15 12:41 | 43.42018 | -5.26254 | 37268 ft | 391 kts | 217° |
| 2026-04-15 12:41 | 43.37330 | -5.30081 | 37270 ft | 392 kts | 217° |
| 2026-04-15 12:42 | 43.32661 | -5.33884 | 37262 ft | 393 kts | 217° |
| 2026-04-15 12:42 | 43.27955 | -5.37708 | 37263 ft | 391 kts | 217° |
| 2026-04-15 12:43 | 43.23286 | -5.41496 | 37261 ft | 390 kts | 217° |
| 2026-04-15 12:43 | 43.18601 | -5.45291 | 37247 ft | 390 kts | 217° |
| 2026-04-15 12:44 | 43.13913 | -5.49083 | 37244 ft | 391 kts | 217° |
| 2026-04-15 12:44 | 43.09254 | -5.52841 | 37232 ft | 390 kts | 217° |
| 2026-04-15 12:45 | 43.04578 | -5.56609 | 37264 ft | 391 kts | 217° |
| 2026-04-15 12:45 | 42.99892 | -5.60378 | 37204 ft | 391 kts | 217° |
| 2026-04-15 12:46 | 42.95170 | -5.64168 | 37223 ft | 390 kts | 217° |
| 2026-04-15 12:46 | 42.90505 | -5.67902 | 37231 ft | 390 kts | 217° |
| 2026-04-15 12:47 | 42.85796 | -5.71673 | 37227 ft | 391 kts | 217° |
| 2026-04-15 12:47 | 42.81096 | -5.75426 | 37245 ft | 390 kts | 217° |
| 2026-04-15 12:48 | 42.76429 | -5.79146 | 37224 ft | 390 kts | 217° |
| 2026-04-15 12:48 | 42.71736 | -5.82879 | 37246 ft | 391 kts | 217° |
| 2026-04-15 12:49 | 42.67070 | -5.86585 | 37247 ft | 390 kts | 217° |
| 2026-04-15 12:49 | 42.62372 | -5.90311 | 37245 ft | 389 kts | 217° |
| 2026-04-15 12:50 | 42.57718 | -5.93996 | 37241 ft | 389 kts | 217° |
| 2026-04-15 12:50 | 42.53037 | -5.97694 | 37236 ft | 389 kts | 217° |
| 2026-04-15 12:51 | 42.48349 | -6.01391 | 37235 ft | 389 kts | 217° |
| 2026-04-15 12:51 | 42.43690 | -6.05055 | 37230 ft | 389 kts | 217° |
| 2026-04-15 12:52 | 42.39002 | -6.08741 | 37221 ft | 390 kts | 217° |
| 2026-04-15 12:52 | 42.34317 | -6.12418 | 37222 ft | 390 kts | 217° |
| 2026-04-15 12:53 | 42.29605 | -6.16106 | 37225 ft | 390 kts | 217° |
| 2026-04-15 12:53 | 42.24919 | -6.19772 | 37222 ft | 390 kts | 217° |
| 2026-04-15 12:54 | 42.20201 | -6.23453 | 37217 ft | 391 kts | 217° |
| 2026-04-15 12:54 | 42.16272 | -6.26515 | 37222 ft | 393 kts | 217° |
| 2026-04-15 12:55 | 42.11567 | -6.30177 | 37222 ft | 391 kts | 217° |
| 2026-04-15 12:55 | 42.06835 | -6.33850 | 37222 ft | 391 kts | 217° |
| 2026-04-15 12:56 | 42.02129 | -6.37501 | 37224 ft | 392 kts | 216° |
| 2026-04-15 12:56 | 41.97399 | -6.41159 | 37236 ft | 392 kts | 216° |
| 2026-04-15 12:57 | 41.92656 | -6.44824 | 37236 ft | 393 kts | 216° |
| 2026-04-15 12:57 | 41.87921 | -6.48475 | 37239 ft | 393 kts | 216° |
| 2026-04-15 12:58 | 41.83170 | -6.52134 | 37236 ft | 393 kts | 216° |
| 2026-04-15 12:58 | 41.78429 | -6.55779 | 37232 ft | 394 kts | 216° |
| 2026-04-15 12:59 | 41.71265 | -6.61240 | 37252 ft | 396 kts | 214° |
| 2026-04-15 12:59 | 41.66009 | -6.63725 | 37257 ft | 409 kts | 202° |
| 2026-04-15 13:00 | 41.60488 | -6.65621 | 37241 ft | 410 kts | 202° |
| 2026-04-15 13:00 | 41.55009 | -6.67530 | 37270 ft | 408 kts | 202° |
| 2026-04-15 13:01 | 41.49485 | -6.69477 | 37263 ft | 409 kts | 202° |
| 2026-04-15 13:01 | 41.43981 | -6.71414 | 37271 ft | 408 kts | 202° |
| 2026-04-15 13:02 | 41.38517 | -6.73335 | 37257 ft | 409 kts | 202° |
| 2026-04-15 13:02 | 41.33015 | -6.75265 | 37271 ft | 409 kts | 202° |
| 2026-04-15 13:03 | 41.27482 | -6.77201 | 37267 ft | 410 kts | 202° |
| 2026-04-15 13:03 | 41.21985 | -6.79122 | 37253 ft | 410 kts | 202° |
| 2026-04-15 13:04 | 41.16440 | -6.80924 | 37274 ft | 411 kts | 199° |
| 2026-04-15 13:04 | 41.10816 | -6.82424 | 37271 ft | 412 kts | 199° |
| 2026-04-15 13:05 | 41.05190 | -6.83944 | 37268 ft | 412 kts | 199° |
| 2026-04-15 13:05 | 40.99592 | -6.85472 | 37271 ft | 414 kts | 199° |
| 2026-04-15 13:06 | 40.93951 | -6.87009 | 37262 ft | 412 kts | 199° |
| 2026-04-15 13:06 | 40.88321 | -6.88543 | 37259 ft | 413 kts | 199° |
| 2026-04-15 13:07 | 40.82669 | -6.90078 | 37266 ft | 413 kts | 199° |
| 2026-04-15 13:07 | 40.77046 | -6.91604 | 37262 ft | 414 kts | 199° |
| 2026-04-15 13:08 | 40.71387 | -6.93136 | 37262 ft | 414 kts | 199° |
| 2026-04-15 13:08 | 40.65748 | -6.94662 | 37256 ft | 415 kts | 199° |
| 2026-04-15 13:09 | 40.60085 | -6.96188 | 37263 ft | 415 kts | 199° |
| 2026-04-15 13:09 | 40.54441 | -6.97709 | 37260 ft | 416 kts | 199° |
| 2026-04-15 13:10 | 40.48796 | -6.99224 | 37257 ft | 416 kts | 198° |
| 2026-04-15 13:10 | 40.43118 | -7.00749 | 37257 ft | 417 kts | 198° |
| 2026-04-15 13:11 | 40.37449 | -7.02269 | 37258 ft | 417 kts | 198° |
| 2026-04-15 13:11 | 40.31755 | -7.03793 | 37254 ft | 417 kts | 198° |
| 2026-04-15 13:12 | 40.26091 | -7.05305 | 37249 ft | 417 kts | 198° |
| 2026-04-15 13:12 | 40.20398 | -7.06822 | 37240 ft | 417 kts | 198° |
| 2026-04-15 13:13 | 40.14735 | -7.08330 | 37234 ft | 417 kts | 198° |
| 2026-04-15 13:13 | 40.09024 | -7.09848 | 37243 ft | 418 kts | 198° |
| 2026-04-15 13:14 | 40.03321 | -7.11360 | 37227 ft | 418 kts | 198° |
| 2026-04-15 13:14 | 39.97647 | -7.12861 | 37228 ft | 419 kts | 198° |
| 2026-04-15 13:15 | 39.91922 | -7.14372 | 37244 ft | 419 kts | 198° |
| 2026-04-15 13:15 | 39.86203 | -7.15882 | 37253 ft | 419 kts | 198° |
| 2026-04-15 13:16 | 39.80473 | -7.17393 | 37254 ft | 419 kts | 198° |
| 2026-04-15 13:16 | 39.74785 | -7.18893 | 37254 ft | 420 kts | 198° |
| 2026-04-15 13:17 | 39.69058 | -7.20397 | 37257 ft | 420 kts | 198° |
| 2026-04-15 13:17 | 39.63317 | -7.21905 | 37257 ft | 420 kts | 198° |
| 2026-04-15 13:18 | 39.57588 | -7.23407 | 37258 ft | 420 kts | 197° |
| 2026-04-15 13:18 | 39.51842 | -7.24908 | 37255 ft | 422 kts | 197° |
| 2026-04-15 13:19 | 39.46106 | -7.26401 | 37257 ft | 421 kts | 197° |
| 2026-04-15 13:19 | 39.40347 | -7.27898 | 37245 ft | 421 kts | 197° |
| 2026-04-15 13:20 | 39.34616 | -7.29388 | 37253 ft | 421 kts | 197° |
| 2026-04-15 13:20 | 39.28840 | -7.30890 | 37262 ft | 421 kts | 197° |
| 2026-04-15 13:21 | 39.23108 | -7.32371 | 37253 ft | 422 kts | 197° |
| 2026-04-15 13:21 | 39.17331 | -7.33866 | 37261 ft | 422 kts | 197° |
| 2026-04-15 13:22 | 39.11600 | -7.35346 | 37271 ft | 422 kts | 197° |
| 2026-04-15 13:22 | 39.05825 | -7.36832 | 37264 ft | 422 kts | 197° |
| 2026-04-15 13:23 | 39.00051 | -7.38318 | 37258 ft | 422 kts | 197° |
| 2026-04-15 13:23 | 38.94318 | -7.39792 | 37261 ft | 422 kts | 197° |
| 2026-04-15 13:24 | 38.88536 | -7.41275 | 37254 ft | 422 kts | 197° |
| 2026-04-15 13:24 | 38.82762 | -7.42754 | 37268 ft | 423 kts | 197° |
| 2026-04-15 13:25 | 38.77011 | -7.44225 | 37265 ft | 423 kts | 197° |
| 2026-04-15 13:25 | 38.71223 | -7.45697 | 37262 ft | 423 kts | 196° |
| 2026-04-15 13:26 | 38.65522 | -7.47150 | 36577 ft | 418 kts | 196° |
| 2026-04-15 13:26 | 38.62656 | -7.47881 | 35713 ft | 422 kts | 196° |
| 2026-04-15 13:26 | 38.59760 | -7.48618 | 34882 ft | 425 kts | 195° |
| 2026-04-15 13:27 | 38.56840 | -7.49360 | 34053 ft | 429 kts | 195° |
| 2026-04-15 13:27 | 38.53904 | -7.50109 | 33154 ft | 431 kts | 195° |
| 2026-04-15 13:27 | 38.50949 | -7.50862 | 32287 ft | 434 kts | 195° |
| 2026-04-15 13:27 | 38.47992 | -7.51611 | 31438 ft | 436 kts | 195° |
| 2026-04-15 13:28 | 38.45002 | -7.52365 | 30628 ft | 439 kts | 195° |
| 2026-04-15 13:28 | 38.41986 | -7.53125 | 29803 ft | 443 kts | 195° |
| 2026-04-15 13:28 | 38.38943 | -7.53892 | 29054 ft | 446 kts | 195° |
| 2026-04-15 13:28 | 38.35873 | -7.54672 | 28348 ft | 450 kts | 195° |
| 2026-04-15 13:29 | 38.32786 | -7.55453 | 27664 ft | 453 kts | 195° |
| 2026-04-15 13:29 | 38.29709 | -7.56230 | 27009 ft | 457 kts | 194° |
| 2026-04-15 13:29 | 38.26572 | -7.57020 | 26364 ft | 460 kts | 194° |
| 2026-04-15 13:29 | 38.23425 | -7.57809 | 25734 ft | 463 kts | 194° |
| 2026-04-15 13:30 | 38.20246 | -7.58610 | 25126 ft | 467 kts | 194° |
| 2026-04-15 13:30 | 38.17070 | -7.59406 | 24532 ft | 470 kts | 194° |
| 2026-04-15 13:30 | 38.13846 | -7.60213 | 23936 ft | 470 kts | 194° |
| 2026-04-15 13:30 | 38.10646 | -7.61013 | 23083 ft | 465 kts | 193° |
| 2026-04-15 13:31 | 38.07445 | -7.61551 | 22176 ft | 465 kts | 186° |
| 2026-04-15 13:31 | 38.04251 | -7.61746 | 21319 ft | 462 kts | 184° |
| 2026-04-15 13:31 | 38.01046 | -7.61921 | 20476 ft | 458 kts | 184° |
| 2026-04-15 13:31 | 37.97866 | -7.62092 | 19656 ft | 455 kts | 184° |
| 2026-04-15 13:32 | 37.94710 | -7.62261 | 18949 ft | 449 kts | 184° |
| 2026-04-15 13:32 | 37.91605 | -7.62429 | 18206 ft | 443 kts | 184° |
| 2026-04-15 13:32 | 37.88573 | -7.62593 | 17409 ft | 438 kts | 184° |
| 2026-04-15 13:32 | 37.85548 | -7.62760 | 16646 ft | 433 kts | 184° |
| 2026-04-15 13:33 | 37.82545 | -7.62924 | 15896 ft | 427 kts | 184° |
| 2026-04-15 13:33 | 37.79583 | -7.63086 | 15180 ft | 423 kts | 184° |
| 2026-04-15 13:33 | 37.76655 | -7.63246 | 14494 ft | 418 kts | 184° |
| 2026-04-15 13:33 | 37.73797 | -7.63403 | 13786 ft | 414 kts | 184° |
| 2026-04-15 13:34 | 37.70927 | -7.63562 | 13013 ft | 410 kts | 184° |
| 2026-04-15 13:34 | 37.68085 | -7.63720 | 12258 ft | 406 kts | 184° |
| 2026-04-15 13:34 | 37.65284 | -7.63876 | 11802 ft | 396 kts | 184° |
| 2026-04-15 13:34 | 37.62607 | -7.64020 | 11535 ft | 382 kts | 184° |
| 2026-04-15 13:35 | 37.60001 | -7.64152 | 11320 ft | 368 kts | 183° |
| 2026-04-15 13:35 | 37.57488 | -7.64279 | 11137 ft | 354 kts | 184° |
| 2026-04-15 13:35 | 37.55072 | -7.64406 | 10962 ft | 341 kts | 184° |
| 2026-04-15 13:35 | 37.52742 | -7.64531 | 10805 ft | 329 kts | 184° |
| 2026-04-15 13:36 | 37.50492 | -7.64653 | 10665 ft | 317 kts | 184° |
| 2026-04-15 13:36 | 37.48349 | -7.64771 | 10523 ft | 306 kts | 184° |
| 2026-04-15 13:36 | 37.46240 | -7.64888 | 10287 ft | 299 kts | 183° |
| 2026-04-15 13:36 | 37.44175 | -7.65002 | 9935 ft | 296 kts | 183° |
| 2026-04-15 13:37 | 37.42117 | -7.65115 | 9538 ft | 295 kts | 183° |
| 2026-04-15 13:37 | 37.40066 | -7.65227 | 9145 ft | 294 kts | 183° |
| 2026-04-15 13:37 | 37.38034 | -7.65338 | 8735 ft | 294 kts | 183° |
| 2026-04-15 13:37 | 37.35982 | -7.65450 | 8346 ft | 294 kts | 183° |
| 2026-04-15 13:38 | 37.33941 | -7.65560 | 8019 ft | 292 kts | 182° |
| 2026-04-15 13:38 | 37.31925 | -7.65669 | 7735 ft | 287 kts | 182° |
| 2026-04-15 13:38 | 37.29965 | -7.65775 | 7459 ft | 283 kts | 182° |
| 2026-04-15 13:38 | 37.27992 | -7.65882 | 7073 ft | 285 kts | 182° |
| 2026-04-15 13:39 | 37.25995 | -7.65991 | 6675 ft | 287 kts | 182° |
| 2026-04-15 13:39 | 37.24004 | -7.66099 | 6322 ft | 285 kts | 182° |
| 2026-04-15 13:39 | 37.22027 | -7.66206 | 6015 ft | 283 kts | 182° |
| 2026-04-15 13:39 | 37.20064 | -7.66313 | 5690 ft | 281 kts | 182° |
| 2026-04-15 13:40 | 37.18135 | -7.66416 | 5360 ft | 279 kts | 182° |
| 2026-04-15 13:40 | 37.16216 | -7.66519 | 5238 ft | 273 kts | 182° |
| 2026-04-15 13:40 | 37.14311 | -7.66622 | 5233 ft | 273 kts | 182° |
| 2026-04-15 13:40 | 37.12407 | -7.66725 | 5249 ft | 273 kts | 182° |
| 2026-04-15 13:41 | 37.10516 | -7.66827 | 5181 ft | 269 kts | 182° |
| 2026-04-15 13:41 | 37.08671 | -7.66927 | 4853 ft | 268 kts | 182° |
| 2026-04-15 13:41 | 37.06807 | -7.67028 | 4528 ft | 265 kts | 182° |
| 2026-04-15 13:41 | 37.04989 | -7.67123 | 4351 ft | 257 kts | 182° |
| 2026-04-15 13:42 | 37.03813 | -7.67186 | 4173 ft | 254 kts | 182° |
| 2026-04-15 13:42 | 37.02028 | -7.67280 | 3991 ft | 257 kts | 182° |
| 2026-04-15 13:42 | 37.00238 | -7.67375 | 3970 ft | 257 kts | 182° |
| 2026-04-15 13:42 | 36.98496 | -7.67711 | 3957 ft | 246 kts | 204° |
| 2026-04-15 13:43 | 36.97256 | -7.68975 | 3945 ft | 226 kts | 240° |
| 2026-04-15 13:43 | 36.96917 | -7.70755 | 3916 ft | 203 kts | 277° |
| 2026-04-15 13:43 | 36.97384 | -7.72353 | 3752 ft | 191 kts | 296° |
| 2026-04-15 13:43 | 36.97934 | -7.73840 | 3521 ft | 184 kts | 292° |
| 2026-04-15 13:44 | 36.98343 | -7.75332 | 3273 ft | 179 kts | 287° |
| 2026-04-15 13:44 | 36.98640 | -7.76832 | 3036 ft | 177 kts | 282° |
| 2026-04-15 13:44 | 36.98855 | -7.78324 | 2809 ft | 176 kts | 281° |
| 2026-04-15 13:44 | 36.99070 | -7.79832 | 2577 ft | 176 kts | 281° |
| 2026-04-15 13:45 | 36.99284 | -7.81343 | 2343 ft | 176 kts | 281° |
| 2026-04-15 13:45 | 36.99498 | -7.82850 | 2127 ft | 177 kts | 281° |
| 2026-04-15 13:45 | 36.99711 | -7.84353 | 1857 ft | 174 kts | 281° |
| 2026-04-15 13:47 | 37.01043 | -7.93752 | 378 ft | 152 kts | 276° |
| 2026-04-15 13:47 | 37.01220 | -7.95059 | 206 ft | 152 kts | 277° |
| 2026-04-15 13:47 | 37.01417 | -7.96361 | 30 ft | 149 kts | 275° |
| 2026-04-15 13:48 | 37.01558 | -7.97446 | 24 ft | 88 kts | 281° |
| 2026-04-15 13:48 | 37.01616 | -7.97814 | 26 ft | 13 kts | 282° |
| 2026-04-15 13:48 | 37.01685 | -7.97844 | 26 ft | 12 kts | 22° |
| 2026-04-15 13:48 | 37.01745 | -7.97758 | 25 ft | 14 kts | 64° |
| 2026-04-15 13:49 | 37.01767 | -7.97629 | 26 ft | 16 kts | 88° |
| 2026-04-15 13:49 | 37.01756 | -7.97483 | 27 ft | 18 kts | 102° |
| 2026-04-15 13:49 | 37.01731 | -7.97325 | 26 ft | 19 kts | 99° |
| 2026-04-15 13:49 | 37.01706 | -7.97154 | 26 ft | 21 kts | 100° |
| 2026-04-15 13:50 | 37.01686 | -7.96997 | 26 ft | 12 kts | 101° |
| 2026-04-15 13:50 | 37.01709 | -7.96907 | 26 ft | 13 kts | 19° |
| 2026-04-15 13:50 | 37.01797 | -7.96883 | 26 ft | 11 kts | 6° |
| 2026-04-15 13:50 | 37.01858 | -7.96918 | 27 ft | 8 kts | 354° |
| 2026-04-15 13:51 | 37.01903 | -7.96912 | 26 ft | 5 kts | 8° |
| 2026-04-15 13:51 | 37.01912 | -7.96911 | 26 ft | 0 kts | 10° |
| 2026-04-15 13:51 | 37.01918 | -7.96909 | 26 ft | 2 kts | 9° |
| 2026-04-15 13:52 | 37.01921 | -7.96909 | 26 ft | 0 kts | 9° |